Time;durP1;ratioP1;P1;durP2;ratioP2;P2;SDS_P1;SDS_P2;PMS_P1;PMS_P2;Temp;Humidity;BMP_temperature;BMP_pressure;BME280_temperature;BME280_humidity;BME280_pressure;Samples;Min_cycle;Max_cycle;Signal;HPM_P1;HPM_P2
2021/05/20 00:00:00;;;;;;;2.25;0.90;;;;;;;11.73;100.00;98486.83;1663805;85;21075;-55
2021/05/20 00:02:27;;;;;;;0.98;0.90;;;;;;;11.73;100.00;98492.23;1666781;85;21017;-54
2021/05/20 00:09:11;;;;;;;1.47;1.12;;;;;;;11.78;100.00;98492.75;1783998;79;22645;-54
2021/05/20 00:11:39;;;;;;;1.62;1.12;;;;;;;11.71;100.00;98484.72;1744811;80;20930;-52
2021/05/20 00:14:06;;;;;;;2.08;1.25;;;;;;;11.69;100.00;98486.19;1731987;80;22045;-52
2021/05/20 00:16:35;;;;;;;1.32;1.02;;;;;;;11.68;100.00;98493.06;1726144;80;20950;-53
2021/05/20 00:19:02;;;;;;;1.20;1.10;;;;;;;11.68;100.00;98497.12;1728785;80;20942;-52
2021/05/20 00:21:29;;;;;;;0.95;0.95;;;;;;;11.68;100.00;98489.02;1733465;80;20906;-54
2021/05/20 00:23:57;;;;;;;1.22;1.02;;;;;;;11.67;100.00;98490.00;1728176;80;20902;-52
2021/05/20 00:26:25;;;;;;;1.20;1.10;;;;;;;11.66;100.00;98488.25;1734641;80;21629;-52
2021/05/20 00:28:51;;;;;;;2.42;1.00;;;;;;;11.66;100.00;98495.00;1728446;80;20901;-51
2021/05/20 00:31:18;;;;;;;2.12;1.10;;;;;;;11.67;100.00;98492.70;1724410;80;20965;-53
2021/05/20 00:33:45;;;;;;;5.20;0.95;;;;;;;11.66;100.00;98492.30;1730819;80;20950;-52
2021/05/20 00:36:12;;;;;;;0.93;0.90;;;;;;;11.66;100.00;98503.10;1731585;80;21557;-52
2021/05/20 00:38:39;;;;;;;1.07;0.95;;;;;;;11.67;100.00;98494.05;1728435;80;21086;-52
2021/05/20 00:41:06;;;;;;;2.30;1.20;;;;;;;11.66;100.00;98496.34;1723792;80;21513;-53
2021/05/20 00:43:34;;;;;;;2.02;1.20;;;;;;;11.64;100.00;98495.61;1729259;80;21032;-51
2021/05/20 00:46:02;;;;;;;1.12;1.00;;;;;;;11.65;100.00;98494.63;1729501;80;20965;-50
2021/05/20 00:48:30;;;;;;;1.25;1.15;;;;;;;11.63;100.00;98493.90;1731637;80;20973;-51
2021/05/20 00:50:57;;;;;;;1.30;1.00;;;;;;;11.62;100.00;98489.48;1742344;80;21066;-52
2021/05/20 00:53:24;;;;;;;1.85;1.70;;;;;;;11.61;100.00;98487.73;1728303;80;20903;-52
2021/05/20 00:55:52;;;;;;;1.40;1.30;;;;;;;11.62;100.00;98492.18;1738493;80;20967;-51
2021/05/20 00:58:18;;;;;;;1.42;1.32;;;;;;;11.61;100.00;98489.97;1723621;80;20997;-52
2021/05/20 01:00:45;;;;;;;1.10;1.00;;;;;;;11.61;100.00;98493.13;1736102;80;20981;-50
2021/05/20 01:03:13;;;;;;;0.98;0.98;;;;;;;11.58;100.00;98493.38;1731568;80;21446;-51
2021/05/20 01:05:40;;;;;;;1.40;1.20;;;;;;;11.57;100.00;98493.02;1724396;80;21057;-52
2021/05/20 01:08:07;;;;;;;1.42;1.25;;;;;;;11.55;100.00;98488.56;1718693;80;20942;-51
2021/05/20 01:10:34;;;;;;;1.15;1.10;;;;;;;11.56;100.00;98496.20;1711478;81;21014;-50
2021/05/20 01:13:03;;;;;;;1.27;1.10;;;;;;;11.54;100.00;98493.59;1714005;81;20970;-51
2021/05/20 01:15:32;;;;;;;1.32;1.22;;;;;;;11.53;100.00;98487.83;1718339;81;21048;-50
2021/05/20 01:18:02;;;;;;;1.12;1.10;;;;;;;11.51;100.00;98478.98;1716535;81;20957;-52
2021/05/20 01:20:31;;;;;;;2.17;1.33;;;;;;;11.48;100.00;98488.66;1695192;82;20927;-54
2021/05/20 01:23:08;;;;;;;2.22;1.47;;;;;;;11.45;100.00;98493.41;1721344;81;20995;-53
2021/05/20 01:25:35;;;;;;;2.27;1.27;;;;;;;11.44;100.00;98484.45;1717716;81;21443;-50
2021/05/20 01:28:06;;;;;;;4.83;1.77;;;;;;;11.42;100.00;98485.55;1711935;80;21074;-50
2021/05/20 01:30:34;;;;;;;2.77;1.47;;;;;;;11.40;100.00;98497.83;1710819;81;21717;-51
2021/05/20 01:33:01;;;;;;;4.08;2.00;;;;;;;11.39;100.00;98493.86;1714412;82;20958;-50
2021/05/20 01:35:28;;;;;;;2.75;1.95;;;;;;;11.38;100.00;98486.75;1724731;81;21523;-49
2021/05/20 01:38:41;;;;;;;2.85;1.92;;;;;;;11.36;100.00;98489.56;1714121;81;20969;-50
2021/05/20 01:41:03;;;;;;;2.77;2.12;;;;;;;11.36;100.00;98489.56;1712642;81;21765;-51
2021/05/20 01:43:31;;;;;;;9.13;2.45;;;;;;;11.35;100.00;98487.84;1717565;81;20950;-49
2021/05/20 01:46:04;;;;;;;2.65;2.17;;;;;;;11.35;100.00;98482.45;1712190;82;21646;-51
2021/05/20 01:48:29;;;;;;;2.17;1.95;;;;;;;11.33;100.00;98483.03;1709836;81;20954;-50
2021/05/20 01:51:03;;;;;;;2.40;1.87;;;;;;;11.32;100.00;98485.36;1711288;81;20934;-59
2021/05/20 01:53:30;;;;;;;2.70;2.15;;;;;;;11.33;100.00;98483.52;1715826;81;21987;-59
2021/05/20 01:55:57;;;;;;;4.42;2.17;;;;;;;11.33;100.00;98478.98;1689166;82;20985;-60
2021/05/20 01:58:24;;;;;;;2.00;1.90;;;;;;;11.34;100.00;98491.50;1711895;80;20910;-59
2021/05/20 02:00:51;;;;;;;1.72;1.62;;;;;;;11.34;100.00;98490.64;1712205;82;21016;-61
2021/05/20 02:03:19;;;;;;;3.85;1.98;;;;;;;11.33;100.00;98484.38;1713757;81;21419;-57
2021/05/20 02:05:46;;;;;;;2.75;2.05;;;;;;;11.35;100.00;98489.69;1712152;80;21580;-59
2021/05/20 02:08:13;;;;;;;2.10;1.90;;;;;;;11.33;100.00;98487.08;1716795;80;20894;-59
2021/05/20 02:10:40;;;;;;;2.37;2.17;;;;;;;11.34;100.00;98491.50;1725999;80;21658;-60
2021/05/20 02:13:07;;;;;;;3.05;2.20;;;;;;;11.34;100.00;98486.10;1727929;80;20989;-60
2021/05/20 02:15:34;;;;;;;6.33;2.22;;;;;;;11.34;100.00;98487.45;1727967;81;20965;-60
2021/05/20 02:18:01;;;;;;;2.02;1.80;;;;;;;11.36;100.00;98494.97;1731447;80;21050;-60
2021/05/20 02:20:28;;;;;;;2.27;1.80;;;;;;;11.36;100.00;98492.27;1734583;80;20913;-60
2021/05/20 02:22:55;;;;;;;2.67;1.80;;;;;;;11.32;100.00;98490.77;1728895;81;20919;-60
2021/05/20 02:25:22;;;;;;;2.12;1.92;;;;;;;11.33;100.00;98487.08;1733610;81;21036;-60
2021/05/20 02:27:49;;;;;;;2.60;2.00;;;;;;;11.33;100.00;98492.48;1734068;80;21198;-60
2021/05/20 02:30:18;;;;;;;3.22;1.98;;;;;;;11.32;100.00;98490.77;1738928;80;21544;-60
2021/05/20 02:32:46;;;;;;;4.20;2.25;;;;;;;11.31;100.00;98501.67;1725524;81;21581;-60
2021/05/20 02:35:13;;;;;;;2.17;1.77;;;;;;;11.28;100.00;98489.26;1730654;81;20970;-59
2021/05/20 02:37:40;;;;;;;2.00;1.90;;;;;;;11.28;100.00;98491.95;1734602;81;21025;-60
2021/05/20 02:40:09;;;;;;;2.37;1.98;;;;;;;11.27;100.00;98494.28;1727696;81;20973;-59
2021/05/20 02:42:36;;;;;;;2.27;2.08;;;;;;;11.24;100.00;98487.78;1735501;81;21052;-58
2021/05/20 02:45:06;;;;;;;4.20;2.10;;;;;;;11.23;100.00;98481.98;1729439;81;21276;-60
2021/05/20 02:47:33;;;;;;;3.02;2.30;;;;;;;11.21;100.00;98488.84;1732314;80;20992;-60
2021/05/20 02:50:00;;;;;;;3.02;2.50;;;;;;;11.20;100.00;98486.27;1730113;81;20997;-60
2021/05/20 02:52:29;;;;;;;3.52;2.33;;;;;;;11.18;100.00;98482.80;1727860;81;21526;-60
2021/05/20 02:54:56;;;;;;;3.30;2.50;;;;;;;11.17;100.00;98486.48;1729666;81;21078;-60
2021/05/20 02:57:24;;;;;;;3.85;2.42;;;;;;;11.14;100.00;98486.23;1726694;80;20941;-59
2021/05/20 02:59:51;;;;;;;3.05;2.75;;;;;;;11.20;100.00;98488.97;1726507;81;22078;-60
2021/05/20 03:02:18;;;;;;;10.65;2.42;;;;;;;11.18;100.00;98488.20;1727348;81;20964;-59
2021/05/20 03:04:45;;;;;;;5.33;2.30;;;;;;;11.17;100.00;98487.83;1726680;81;21575;-61
2021/05/20 03:07:11;;;;;;;3.37;2.17;;;;;;;11.19;100.00;98484.55;1728205;80;21036;-60
2021/05/20 03:09:40;;;;;;;5.40;2.35;;;;;;;11.19;100.00;98484.55;1715433;81;20913;-61
2021/05/20 03:12:09;;;;;;;4.05;2.75;;;;;;;11.19;100.00;98498.05;1713795;81;21467;-61
2021/05/20 03:14:35;;;;;;;2.90;2.40;;;;;;;11.19;100.00;98492.66;1707063;81;21561;-60
2021/05/20 03:17:11;;;;;;;4.67;2.90;;;;;;;11.19;100.00;98497.56;1715634;80;20973;-59
2021/05/20 03:19:33;;;;;;;4.58;2.40;;;;;;;11.18;100.00;98481.45;1716108;81;21217;-60
2021/05/20 03:22:00;;;;;;;4.35;2.35;;;;;;;11.18;100.00;98490.90;1712198;82;20949;-60
2021/05/20 03:24:27;;;;;;;3.33;2.87;;;;;;;11.20;100.00;98492.53;1721681;81;20934;-60
2021/05/20 03:26:54;;;;;;;3.65;2.52;;;;;;;11.20;100.00;98489.83;1710041;80;20969;-61
2021/05/20 03:29:21;;;;;;;2.98;2.33;;;;;;;11.19;100.00;98488.60;1714436;81;20971;-61
2021/05/20 03:31:48;;;;;;;2.77;2.58;;;;;;;11.24;100.00;98497.23;1712224;81;21517;-61
2021/05/20 03:34:15;;;;;;;2.20;2.00;;;;;;;11.24;100.00;98503.97;1710262;81;20976;-63
2021/05/20 03:36:42;;;;;;;2.52;2.10;;;;;;;11.25;100.00;98489.01;1718828;80;21021;-64
2021/05/20 03:39:09;;;;;;;5.65;2.55;;;;;;;11.26;100.00;98484.47;1715346;81;21334;-62
2021/05/20 03:41:36;;;;;;;2.65;2.10;;;;;;;11.27;100.00;98488.89;1717980;81;21267;-65
2021/05/20 03:44:03;;;;;;;2.47;2.27;;;;;;;11.30;100.00;98492.72;1720569;81;20985;-63
2021/05/20 03:46:32;;;;;;;3.62;2.70;;;;;;;11.30;100.00;98494.08;1709150;81;20899;-62
2021/05/20 03:48:59;;;;;;;5.67;2.30;;;;;;;11.31;100.00;98498.48;1716099;81;21042;-62
2021/05/20 03:51:26;;;;;;;2.83;2.37;;;;;;;11.31;100.00;98505.23;1718942;80;20913;-62
2021/05/20 03:53:53;;;;;;;2.58;2.25;;;;;;;11.32;100.00;98493.46;1711999;82;20945;-62
2021/05/20 03:56:20;;;;;;;3.47;2.80;;;;;;;11.33;100.00;98498.37;1716896;82;21595;-60
2021/05/20 03:58:47;;;;;;;2.70;2.25;;;;;;;11.35;100.00;98489.69;1713230;82;20961;-60
2021/05/20 04:01:14;;;;;;;5.08;2.42;;;;;;;11.35;100.00;98497.30;1719619;80;21638;-61
2021/05/20 04:03:41;;;;;;;2.65;2.35;;;;;;;11.37;100.00;98510.18;1717372;81;21060;-59
2021/05/20 04:06:09;;;;;;;2.60;2.40;;;;;;;11.40;100.00;98498.28;1712262;80;21001;-60
2021/05/20 04:08:36;;;;;;;3.08;2.72;;;;;;;11.45;100.00;98502.39;1719025;81;21099;-58
2021/05/20 04:11:03;;;;;;;3.35;2.37;;;;;;;11.49;100.00;98517.37;1722169;81;21502;-60
2021/05/20 04:13:37;;;;;;;4.55;2.75;;;;;;;11.52;100.00;98502.30;1713547;80;21070;-60
2021/05/20 04:16:05;;;;;;;3.08;2.60;;;;;;;11.57;100.00;98499.27;1710419;81;21002;-58
2021/05/20 04:18:32;;;;;;;3.80;2.42;;;;;;;11.59;100.00;98494.60;1717548;81;21014;-62
2021/05/20 04:20:59;;;;;;;5.25;2.52;;;;;;;11.58;100.00;98496.94;1714112;80;21536;-60
2021/05/20 04:23:27;;;;;;;4.40;2.80;;;;;;;11.59;100.00;98508.59;1722888;80;20930;-61
2021/05/20 04:25:54;;;;;;;3.15;2.47;;;;;;;11.59;100.00;98505.89;1712874;81;20934;-63
2021/05/20 04:28:21;;;;;;;4.80;3.00;;;;;;;11.57;100.00;98507.37;1710366;81;20992;-61
2021/05/20 04:30:49;;;;;;;6.35;2.30;;;;;;;11.58;100.00;98497.43;1713389;81;20950;-61
2021/05/20 04:33:15;;;;;;;5.62;2.22;;;;;;;11.62;100.00;98509.73;1715140;81;21062;-62
2021/05/20 04:35:43;;;;;;;3.33;2.45;;;;;;;11.63;100.00;98508.75;1717684;80;20905;-64
2021/05/20 04:38:10;;;;;;;2.30;2.10;;;;;;;11.64;100.00;98496.97;1713551;81;21383;-61
2021/05/20 04:40:38;;;;;;;7.33;2.83;;;;;;;11.66;100.00;98503.10;1713499;81;20961;-60
2021/05/20 04:43:05;;;;;;;4.87;2.30;;;;;;;11.67;100.00;98511.60;1713204;81;20957;-67
2021/05/20 04:45:33;;;;;;;2.85;2.30;;;;;;;11.66;100.00;98503.96;1716438;80;21047;-62
2021/05/20 04:48:02;;;;;;;3.37;2.30;;;;;;;11.67;100.00;98503.50;1716081;81;20906;-62
2021/05/20 04:50:29;;;;;;;2.62;2.40;;;;;;;11.67;100.00;98514.30;1718513;81;20888;-63
2021/05/20 04:52:56;;;;;;;2.42;2.22;;;;;;;11.72;100.00;98514.82;1719574;81;21028;-60
2021/05/20 04:55:23;;;;;;;3.25;2.42;;;;;;;11.75;100.00;98510.52;1722047;81;21655;-61
2021/05/20 04:57:50;;;;;;;3.87;2.17;;;;;;;11.76;100.00;98518.50;1714996;82;21057;-59
2021/05/20 05:00:18;;;;;;;2.42;2.17;;;;;;;11.79;100.00;98516.94;1715546;81;21510;-61
2021/05/20 05:02:45;;;;;;;4.87;2.30;;;;;;;11.83;100.00;98523.02;1712312;82;21494;-63
2021/05/20 05:05:12;;;;;;;3.42;2.30;;;;;;;11.85;100.00;98523.75;1720709;82;21300;-59
2021/05/20 05:07:39;;;;;;;3.30;2.20;;;;;;;11.88;100.00;98530.28;1716902;81;20965;-64
2021/05/20 05:10:07;;;;;;;4.65;3.83;;;;;;;11.91;100.00;98520.58;1730410;81;21038;-66
2021/05/20 05:12:34;;;;;;;6.28;2.40;;;;;;;11.95;100.00;98529.33;1733122;81;20976;-61
2021/05/20 05:15:01;;;;;;;3.50;2.22;;;;;;;11.99;100.00;98523.58;1737134;81;20969;-59
2021/05/20 05:17:28;;;;;;;2.35;2.15;;;;;;;12.03;100.00;98535.85;1732203;81;20996;-59
2021/05/20 05:19:55;;;;;;;2.62;2.12;;;;;;;12.10;100.00;98532.71;1732299;81;21028;-54
2021/05/20 05:22:22;;;;;;;5.55;3.83;;;;;;;12.17;100.00;98536.66;1739466;81;21539;-59
2021/05/20 05:24:49;;;;;;;3.10;2.00;;;;;;;12.22;99.20;98550.69;1737755;81;21002;-59
2021/05/20 05:27:16;;;;;;;3.92;2.27;;;;;;;12.25;98.60;98549.98;1737020;80;20918;-59
2021/05/20 05:29:44;;;;;;;2.95;2.00;;;;;;;12.31;98.43;98550.00;1734236;80;20957;-57
2021/05/20 05:32:11;;;;;;;4.00;2.08;;;;;;;12.33;97.60;98554.29;1735372;80;21362;-60
2021/05/20 05:34:38;;;;;;;2.75;2.10;;;;;;;12.37;97.36;98560.33;1736856;81;21844;-56
2021/05/20 05:37:05;;;;;;;4.85;2.10;;;;;;;12.40;96.66;98560.57;1738063;80;20967;-58
2021/05/20 05:39:32;;;;;;;2.60;2.08;;;;;;;12.43;96.77;98558.50;1741244;80;20927;-56
2021/05/20 05:41:59;;;;;;;3.95;2.17;;;;;;;12.47;95.50;98569.47;1740736;80;21615;-49
2021/05/20 05:44:26;;;;;;;2.72;1.95;;;;;;;12.53;95.15;98570.83;1737918;81;21697;-48
2021/05/20 05:46:53;;;;;;;2.27;1.70;;;;;;;12.59;94.95;98563.09;1738250;80;21058;-49
2021/05/20 05:49:34;;;;;;;3.42;2.40;;;;;;;12.67;94.80;98565.69;1741295;81;20955;-52
2021/05/20 05:51:57;;;;;;;3.10;2.00;;;;;;;12.85;94.83;98565.62;1733437;80;20974;-50
2021/05/20 05:54:19;;;;;;;1.77;1.67;;;;;;;13.10;91.66;98570.82;1737411;80;20969;-51
2021/05/20 05:56:46;;;;;;;4.85;1.95;;;;;;;13.32;90.42;98575.41;1688385;83;21521;-51
2021/05/20 05:59:13;;;;;;;3.30;1.75;;;;;;;13.51;88.58;98580.19;1699884;82;21076;-52
2021/05/20 06:01:41;;;;;;;3.33;1.62;;;;;;;13.66;86.92;98579.94;1704184;82;21597;-50
2021/05/20 06:04:09;;;;;;;3.75;1.62;;;;;;;13.70;86.49;98576.00;1704073;82;21084;-50
2021/05/20 06:06:36;;;;;;;6.00;1.75;;;;;;;13.71;85.40;98585.84;1685484;83;21795;-50
2021/05/20 06:09:05;;;;;;;2.40;1.72;;;;;;;13.70;84.56;98573.28;1685760;83;21047;-50
2021/05/20 06:11:33;;;;;;;12.47;3.30;;;;;;;13.70;84.75;98584.13;1660616;84;21126;-51
2021/05/20 06:14:06;;;;;;;5.78;1.90;;;;;;;13.72;84.91;98579.43;1674954;83;21703;-50
2021/05/20 06:16:30;;;;;;;2.50;1.65;;;;;;;13.72;85.03;98614.65;1657207;85;21436;-50
2021/05/20 06:18:59;;;;;;;2.22;1.82;;;;;;;13.71;83.14;98593.97;1712321;81;21606;-51
2021/05/20 06:21:26;;;;;;;3.27;1.50;;;;;;;13.68;83.25;98595.06;1710583;81;20993;-50
2021/05/20 06:23:53;;;;;;;3.02;1.62;;;;;;;13.66;83.13;98596.19;1714141;81;21104;-50
2021/05/20 06:26:20;;;;;;;3.22;1.57;;;;;;;13.62;82.19;98604.55;1674066;82;20982;-53
2021/05/20 06:28:47;;;;;;;2.12;1.60;;;;;;;13.62;82.02;98611.82;1708028;81;21002;-51
2021/05/20 06:31:15;;;;;;;2.62;1.60;;;;;;;13.61;81.87;98611.46;1709395;81;21636;-51
2021/05/20 06:33:42;;;;;;;4.60;1.77;;;;;;;13.59;81.60;98596.69;1706519;81;20969;-50
2021/05/20 06:36:10;;;;;;;4.22;1.85;;;;;;;13.59;81.99;98605.31;1710374;82;21040;-49
2021/05/20 06:38:38;;;;;;;2.80;2.00;;;;;;;13.59;82.50;98606.17;1712799;81;20971;-50
2021/05/20 06:41:07;;;;;;;2.55;1.40;;;;;;;13.60;82.04;98598.41;1706719;82;21044;-50
2021/05/20 06:43:34;;;;;;;3.60;1.95;;;;;;;13.63;81.66;98613.08;1672189;84;21010;-49
2021/05/20 06:46:01;;;;;;;2.47;1.98;;;;;;;13.68;81.66;98613.17;1671754;83;21561;-50
2021/05/20 06:48:28;;;;;;;2.65;1.80;;;;;;;13.70;81.73;98619.34;1688295;82;21061;-50
2021/05/20 06:50:54;;;;;;;4.17;1.87;;;;;;;13.72;82.31;98614.65;1677008;83;21473;-50
2021/05/20 06:53:23;;;;;;;4.25;1.80;;;;;;;13.71;82.42;98613.80;1714620;81;20992;-50
2021/05/20 06:55:54;;;;;;;5.05;2.00;;;;;;;13.71;82.35;98625.12;1708301;82;21526;-49
2021/05/20 07:01:04;;;;;;;2.10;1.90;;;;;;;13.73;82.72;98627.20;1709053;81;21034;-52
2021/05/20 07:03:32;;;;;;;2.33;2.12;;;;;;;13.74;82.26;98627.11;1709599;81;21024;-51
2021/05/20 07:05:58;;;;;;;4.40;2.72;;;;;;;13.76;82.51;98635.10;1708119;81;21023;-52
2021/05/20 07:08:26;;;;;;;3.70;2.15;;;;;;;13.81;82.57;98636.94;1704469;81;21000;-50
2021/05/20 07:10:54;;;;;;;2.62;2.00;;;;;;;13.83;82.31;98640.38;1713841;81;21550;-51
2021/05/20 07:13:22;;;;;;;3.15;2.10;;;;;;;13.86;81.39;98640.14;1712764;81;21077;-51
2021/05/20 07:15:49;;;;;;;3.92;1.95;;;;;;;13.87;80.93;98637.80;1716342;81;20935;-51
2021/05/20 07:18:16;;;;;;;4.62;2.05;;;;;;;13.89;80.96;98646.65;1713605;81;21447;-51
2021/05/20 07:20:43;;;;;;;2.80;1.90;;;;;;;13.91;81.14;98643.34;1721579;81;20951;-51
2021/05/20 07:23:13;;;;;;;2.75;1.90;;;;;;;13.91;81.14;98647.41;1715876;80;21062;-50
2021/05/20 07:25:40;;;;;;;4.20;2.15;;;;;;;13.93;80.93;98640.00;1712980;82;21621;-51
2021/05/20 07:28:07;;;;;;;4.90;2.00;;;;;;;13.96;80.15;98646.54;1716673;81;20970;-51
2021/05/20 07:30:34;;;;;;;4.35;2.27;;;;;;;13.97;79.95;98650.97;1711702;81;21387;-51
2021/05/20 07:33:02;;;;;;;4.53;1.77;;;;;;;14.00;79.58;98650.70;1716832;81;20978;-51
2021/05/20 07:35:29;;;;;;;7.20;2.27;;;;;;;14.00;79.16;98654.77;1717036;80;21490;-52
2021/05/20 07:37:56;;;;;;;2.58;2.05;;;;;;;14.01;78.73;98664.64;1713791;81;21038;-52
2021/05/20 07:40:23;;;;;;;4.85;2.12;;;;;;;14.01;78.37;98672.77;1673566;83;21615;-51
2021/05/20 07:42:50;;;;;;;2.50;1.72;;;;;;;14.01;78.35;98675.48;1713989;81;20915;-52
2021/05/20 07:45:17;;;;;;;3.80;1.85;;;;;;;14.02;78.53;98676.34;1714862;81;20982;-52
2021/05/20 07:47:44;;;;;;;6.08;2.40;;;;;;;14.01;78.80;98678.20;1716167;80;20914;-51
2021/05/20 07:50:12;;;;;;;7.78;2.12;;;;;;;14.03;79.04;98679.42;1709466;81;21122;-51
2021/05/20 07:52:40;;;;;;;3.75;2.45;;;;;;;14.05;79.03;98684.20;1713420;81;21010;-52
2021/05/20 07:55:08;;;;;;;3.90;2.27;;;;;;;14.06;79.16;98692.23;1716595;82;21834;-53
2021/05/20 07:57:35;;;;;;;3.87;2.15;;;;;;;14.05;78.95;98687.78;1717297;80;21088;-50
2021/05/20 08:00:04;;;;;;;3.60;2.33;;;;;;;14.05;78.80;98704.05;1707748;81;20945;-52
2021/05/20 08:02:47;;;;;;;6.40;2.17;;;;;;;14.05;79.24;98708.11;1713875;80;21452;-55
2021/05/20 08:05:20;;;;;;;4.45;1.90;;;;;;;14.04;80.57;98710.45;1711833;81;20935;-51
2021/05/20 08:10:38;;;;;;;3.80;2.45;;;;;;;13.91;82.65;98710.23;1712884;81;20933;-52
2021/05/20 08:12:42;;;;;;;5.55;2.30;;;;;;;13.84;83.33;98716.12;1727872;81;20997;-52
2021/05/20 08:15:10;;;;;;;4.33;2.45;;;;;;;13.82;83.17;98726.23;1725977;81;21101;-51
2021/05/20 08:17:37;;;;;;;5.67;2.85;;;;;;;13.84;81.87;98726.11;1725794;80;20945;-50
2021/05/20 08:20:06;;;;;;;6.97;2.50;;;;;;;13.90;81.88;98726.96;1725562;81;21617;-52
2021/05/20 08:22:34;;;;;;;5.87;2.95;;;;;;;13.95;80.75;98727.45;1731918;80;20926;-52
2021/05/20 08:25:01;;;;;;;3.77;2.30;;;;;;;14.01;80.19;98732.41;1725819;81;21030;-53
2021/05/20 08:27:27;;;;;;;5.85;2.30;;;;;;;14.06;79.54;98731.55;1724733;81;21679;-52
2021/05/20 08:29:54;;;;;;;2.75;1.92;;;;;;;14.12;79.34;98729.69;1731786;81;20973;-51
2021/05/20 08:32:21;;;;;;;3.47;2.17;;;;;;;14.19;78.62;98742.25;1730381;80;21608;-53
2021/05/20 08:34:49;;;;;;;2.67;2.20;;;;;;;14.29;78.13;98744.58;1728353;81;21343;-55
2021/05/20 08:37:16;;;;;;;6.40;2.35;;;;;;;14.45;78.34;98755.05;1718406;81;21033;-53
2021/05/20 08:39:43;;;;;;;3.50;2.27;;;;;;;14.60;76.85;98747.03;1725361;81;21203;-52
2021/05/20 08:42:10;;;;;;;5.03;2.17;;;;;;;14.74;76.65;98751.79;1727111;81;21392;-50
2021/05/20 08:44:37;;;;;;;5.85;2.35;;;;;;;14.85;75.88;98747.18;1730810;80;21002;-52
2021/05/20 08:47:05;;;;;;;3.33;2.40;;;;;;;14.94;74.84;98749.63;1735260;81;21583;-53
2021/05/20 08:49:33;;;;;;;4.97;2.62;;;;;;;15.01;73.26;98756.75;1731880;81;21077;-54
2021/05/20 08:52:01;;;;;;;5.33;2.52;;;;;;;15.03;73.01;98750.22;1714676;82;21079;-51
2021/05/20 08:54:27;;;;;;;6.42;2.50;;;;;;;15.04;73.24;98761.94;1727682;80;20972;-51
2021/05/20 08:56:55;;;;;;;3.67;1.85;;;;;;;15.02;72.67;98764.80;1731169;80;20919;-52
2021/05/20 08:59:23;;;;;;;3.72;1.80;;;;;;;15.03;72.34;98761.08;1732565;81;21624;-52
2021/05/20 09:01:52;;;;;;;4.15;1.85;;;;;;;15.02;72.64;98774.76;1727361;80;21466;-52
2021/05/20 09:04:22;;;;;;;5.95;2.30;;;;;;;14.98;72.61;98764.67;1699437;81;21042;-52
2021/05/20 09:06:55;;;;;;;3.55;2.30;;;;;;;14.95;73.17;98763.56;1691327;82;20969;-52
2021/05/20 09:09:21;;;;;;;8.65;2.12;;;;;;;14.93;73.56;98765.55;1731136;80;20973;-53
2021/05/20 09:11:48;;;;;;;8.13;2.30;;;;;;;14.89;73.84;98764.94;1725049;81;20937;-52
2021/05/20 09:14:41;;;;;;;5.47;1.92;;;;;;;14.85;73.43;98777.54;1733229;81;21485;-51
2021/05/20 09:17:18;;;;;;;;;;;;;;;14.82;72.97;98773.73;1733627;80;21561;-52
2021/05/20 09:19:59;;;;;;;4.75;1.90;;;;;;;14.86;72.95;98775.19;1734541;80;20163;-51
2021/05/20 09:22:27;;;;;;;4.40;2.05;;;;;;;14.91;72.31;98781.09;1736306;80;20917;-53
2021/05/20 09:24:57;;;;;;;3.37;1.80;;;;;;;14.98;71.68;98776.89;1735600;80;20971;-53
2021/05/20 09:27:34;;;;;;;6.50;1.72;;;;;;;15.02;71.17;98781.09;1733638;81;21564;-53
2021/05/20 09:30:22;;;;;;;6.35;1.80;;;;;;;15.09;70.50;98785.00;1740483;80;21059;-51
2021/05/20 09:32:56;;;;;;;2.50;1.60;;;;;;;15.17;69.71;98785.69;1734155;80;21386;-52
2021/05/20 09:35:30;;;;;;;2.20;1.47;;;;;;;15.29;67.33;98781.09;1739366;80;21061;-51
2021/05/20 09:38:07;;;;;;;4.53;1.72;;;;;;;15.48;66.79;98784.44;1699273;83;21025;-52
2021/05/20 09:40:43;;;;;;;4.75;1.50;;;;;;;15.68;65.83;98780.91;1708884;82;21084;-51
2021/05/20 09:43:22;;;;;;;2.42;1.22;;;;;;;15.80;65.32;98814.31;1687404;83;21090;-54
2021/05/20 09:45:52;;;;;;;3.95;1.40;;;;;;;15.84;62.19;98803.54;1682611;83;20978;-52
2021/05/20 09:48:21;;;;;;;1.90;1.35;;;;;;;15.90;62.66;98788.05;1680309;83;20997;-52
2021/05/20 09:50:51;;;;;;;3.80;1.10;;;;;;;15.93;61.76;98795.45;1683565;83;20918;-52
2021/05/20 09:53:21;;;;;;;1.80;1.10;;;;;;;16.00;61.18;98788.96;1680780;82;20969;-53
2021/05/20 09:55:58;;;;;;;2.15;1.82;;;;;;;16.10;61.59;98807.55;1700846;82;21801;-51
2021/05/20 09:58:28;;;;;;;4.37;1.85;;;;;;;16.15;60.46;98795.77;1699111;82;21434;-51
2021/05/20 10:00:59;;;;;;;3.55;1.62;;;;;;;16.22;61.27;98796.94;1701373;82;20941;-60
2021/05/20 10:03:28;;;;;;;5.30;1.40;;;;;;;16.34;61.55;98805.01;1703713;82;20958;-59
2021/05/20 10:05:59;;;;;;;5.15;1.52;;;;;;;16.41;61.02;98803.48;1682158;82;20981;-61
2021/05/20 10:08:26;;;;;;;4.70;1.40;;;;;;;16.45;60.24;98808.98;1687636;83;21081;-61
2021/05/20 10:10:54;;;;;;;1.55;1.17;;;;;;;16.46;60.03;98812.09;1681919;83;20964;-62
2021/05/20 10:13:25;;;;;;;3.62;1.25;;;;;;;16.47;59.38;98821.98;1648813;84;21643;-61
2021/05/20 10:15:52;;;;;;;2.35;1.27;;;;;;;16.42;58.29;98813.36;1705251;82;20942;-60
2021/05/20 10:18:25;;;;;;;3.47;1.22;;;;;;;16.47;58.59;98816.53;1705472;82;20981;-61
2021/05/20 10:21:01;;;;;;;4.10;1.52;;;;;;;16.48;58.63;98825.05;1707013;82;21070;-59
2021/05/20 10:23:28;;;;;;;2.60;1.20;;;;;;;16.43;58.68;98815.08;1704864;82;20967;-59
2021/05/20 10:29:44;;;;;;;5.53;1.82;;;;;;;16.42;59.54;98810.64;1748775;79;22785;-60
2021/05/20 10:32:11;;;;;;;9.63;2.12;;;;;;;16.35;59.97;98814.89;1743431;82;20973;-60
2021/05/20 10:35:00;;;;;;;5.47;1.75;;;;;;;16.34;59.89;98817.25;1743540;80;21564;-65
2021/05/20 10:37:37;;;;;;;5.22;1.82;;;;;;;16.31;59.25;98805.30;1746003;82;20929;-61
2021/05/20 10:39:58;;;;;;;1.98;1.15;;;;;;;16.29;59.38;98816.30;1743409;80;20910;-62
2021/05/20 10:42:42;;;;;;;5.22;1.42;;;;;;;16.30;58.72;98814.44;1744532;80;20922;-64
2021/05/20 10:45:23;;;;;;;3.90;1.85;;;;;;;16.30;58.48;98808.52;1744706;80;21028;-60
2021/05/20 10:48:10;;;;;;;3.30;1.63;;;;;;;16.33;58.44;98811.45;1743640;80;21062;-60
2021/05/20 10:50:58;;;;;;;3.05;1.60;;;;;;;16.35;58.72;98799.92;1743853;82;20929;-59
2021/05/20 10:53:49;;;;;;;3.27;1.60;;;;;;;16.47;58.87;98808.38;1744191;82;20906;-62
2021/05/20 10:56:39;;;;;;;6.62;1.60;;;;;;;16.61;59.08;98813.41;1745812;82;20906;-62
2021/05/20 10:59:36;;;;;;;4.95;1.42;;;;;;;16.73;57.95;98824.61;1745606;80;20945;-61
2021/05/20 11:03:54;;;;;;;3.97;1.40;;;;;;;16.80;57.90;98813.16;1772362;77;28156;-61
2021/05/20 11:06:22;;;;;;;5.00;1.70;;;;;;;16.81;58.40;98827.13;1760361;78;20957;-64
2021/05/20 11:08:52;;;;;;;5.30;1.60;;;;;;;16.85;57.92;98812.24;1758125;80;21735;-60
2021/05/20 11:11:26;;;;;;;4.80;1.75;;;;;;;16.87;58.37;98826.56;1757678;80;20938;-63
2021/05/20 11:13:53;;;;;;;3.35;1.80;;;;;;;16.89;57.83;98824.59;1756345;80;21502;-61
2021/05/20 11:16:32;;;;;;;2.85;1.50;;;;;;;16.87;57.04;98822.48;1715284;82;20989;-63
2021/05/20 11:19:25;;;;;;;3.37;1.57;;;;;;;16.91;56.99;98830.74;1699237;83;21418;-62
2021/05/20 11:29:10;;;;;;;3.12;1.50;;;;;;;17.30;55.60;98822.11;1783615;79;22812;-59
2021/05/20 11:31:39;;;;;;;2.08;1.52;;;;;;;17.21;55.43;98825.21;1743312;80;20945;-59
2021/05/20 11:34:21;;;;;;;1.75;1.10;;;;;;;17.18;56.05;98832.29;1730705;80;21637;-61
2021/05/20 11:36:41;;;;;;;2.98;1.35;;;;;;;17.13;55.84;98831.00;1725395;81;21493;-64
2021/05/20 11:39:12;;;;;;;3.75;1.62;;;;;;;17.09;55.91;98820.87;1729334;81;20906;-63
2021/05/20 11:41:42;;;;;;;3.17;1.57;;;;;;;17.12;56.15;98834.22;1728873;81;21501;-62
2021/05/20 11:44:17;;;;;;;4.85;2.22;;;;;;;17.21;56.45;98835.25;1728873;80;21055;-63
2021/05/20 11:46:48;;;;;;;8.00;1.77;;;;;;;17.36;55.64;98828.86;1730443;80;21110;-60
2021/05/20 11:49:18;;;;;;;3.80;1.70;;;;;;;17.49;55.97;98830.81;1731892;80;21445;-62
2021/05/20 11:51:49;;;;;;;3.13;1.53;;;;;;;17.57;55.78;98828.21;1729712;80;20900;-61
2021/05/20 11:54:18;;;;;;;3.58;1.62;;;;;;;17.60;54.19;98838.84;1730701;80;20945;-62
2021/05/20 11:56:52;;;;;;;6.40;1.25;;;;;;;17.59;53.10;98841.22;1735449;80;20960;-62
2021/05/20 11:59:40;;;;;;;5.75;1.60;;;;;;;17.54;52.81;98848.97;1729662;80;21118;-62